sensor_id;sensor_type;location;lat;lon;timestamp;pressure;altitude;pressure_sealevel;temperature;humidity
49393;BME280;35268;42.642;23.308;2023-09-08T00:01:32;94457.53;;;19.79;62.74
49393;BME280;35268;42.642;23.308;2023-09-08T00:03:58;94450.16;;;19.76;62.19
49393;BME280;35268;42.642;23.308;2023-09-08T00:06:23;94459.38;;;19.75;61.01
49393;BME280;35268;42.642;23.308;2023-09-08T00:08:49;94453.56;;;19.73;60.69
49393;BME280;35268;42.642;23.308;2023-09-08T00:11:14;94450.84;;;19.73;60.23
49393;BME280;35268;42.642;23.308;2023-09-08T00:13:39;94448.50;;;19.72;59.55
49393;BME280;35268;42.642;23.308;2023-09-08T00:16:05;94442.97;;;19.68;58.85
49393;BME280;35268;42.642;23.308;2023-09-08T00:18:32;94441.00;;;19.65;58.80
49393;BME280;35268;42.642;23.308;2023-09-08T00:20:58;94435.81;;;19.56;57.15
49393;BME280;35268;42.642;23.308;2023-09-08T00:23:23;94421.06;;;19.54;56.88
49393;BME280;35268;42.642;23.308;2023-09-08T00:25:49;94428.81;;;19.55;56.50
49393;BME280;35268;42.642;23.308;2023-09-08T00:28:14;94430.69;;;19.51;55.66
49393;BME280;35268;42.642;23.308;2023-09-08T00:30:40;94426.78;;;19.49;55.13
49393;BME280;35268;42.642;23.308;2023-09-08T00:33:05;94431.41;;;19.48;54.82
49393;BME280;35268;42.642;23.308;2023-09-08T00:35:34;94430.16;;;19.45;55.43
49393;BME280;35268;42.642;23.308;2023-09-08T00:38:00;94423.47;;;19.39;55.54
49393;BME280;35268;42.642;23.308;2023-09-08T00:40:27;94426.56;;;19.38;55.85
49393;BME280;35268;42.642;23.308;2023-09-08T00:42:53;94421.84;;;19.35;55.06
49393;BME280;35268;42.642;23.308;2023-09-08T00:45:18;94423.19;;;19.25;54.63
49393;BME280;35268;42.642;23.308;2023-09-08T00:47:43;94412.38;;;19.25;54.93
49393;BME280;35268;42.642;23.308;2023-09-08T00:50:09;94421.22;;;19.22;54.74
49393;BME280;35268;42.642;23.308;2023-09-08T00:52:35;94422.06;;;19.26;55.46
49393;BME280;35268;42.642;23.308;2023-09-08T00:55:00;94412.38;;;19.25;54.98
49393;BME280;35268;42.642;23.308;2023-09-08T00:57:26;94420.91;;;19.27;55.61
49393;BME280;35268;42.642;23.308;2023-09-08T00:59:52;94419.78;;;19.28;55.94
49393;BME280;35268;42.642;23.308;2023-09-08T01:02:18;94417.00;;;19.24;55.81
49393;BME280;35268;42.642;23.308;2023-09-08T01:04:45;94412.75;;;19.23;56.16
49393;BME280;35268;42.642;23.308;2023-09-08T01:07:10;94421.72;;;19.28;56.15
49393;BME280;35268;42.642;23.308;2023-09-08T01:09:36;94409.31;;;19.27;56.31
49393;BME280;35268;42.642;23.308;2023-09-08T01:12:03;94419.78;;;19.28;56.29
49393;BME280;35268;42.642;23.308;2023-09-08T01:14:30;94418.72;;;19.33;56.54
49393;BME280;35268;42.642;23.308;2023-09-08T01:16:56;94418.81;;;19.36;56.06
49393;BME280;35268;42.642;23.308;2023-09-08T01:19:22;94420.44;;;19.41;56.14
49393;BME280;35268;42.642;23.308;2023-09-08T01:27:29;94423.34;;;19.52;56.41
49393;BME280;35268;42.642;23.308;2023-09-08T01:29:58;94428.06;;;19.55;56.55
49393;BME280;35268;42.642;23.308;2023-09-08T01:32:25;94421.91;;;19.58;57.25
49393;BME280;35268;42.642;23.308;2023-09-08T01:34:51;94407.69;;;19.61;57.21
49393;BME280;35268;42.642;23.308;2023-09-08T01:37:17;94418.50;;;19.61;58.31
49393;BME280;35268;42.642;23.308;2023-09-08T01:39:42;94419.88;;;19.51;59.34
49393;BME280;35268;42.642;23.308;2023-09-08T01:42:08;94414.31;;;19.44;59.64
49393;BME280;35268;42.642;23.308;2023-09-08T01:44:33;94412.25;;;19.37;60.10
49393;BME280;35268;42.642;23.308;2023-09-08T01:46:59;94418.38;;;19.34;59.96
49393;BME280;35268;42.642;23.308;2023-09-08T01:49:24;94414.81;;;19.30;60.47
49393;BME280;35268;42.642;23.308;2023-09-08T01:51:50;94413.97;;;19.26;60.48
49393;BME280;35268;42.642;23.308;2023-09-08T01:54:16;94403.00;;;19.19;60.80
49393;BME280;35268;42.642;23.308;2023-09-08T01:56:41;94405.25;;;19.17;61.56
49393;BME280;35268;42.642;23.308;2023-09-08T01:59:06;94407.97;;;19.17;61.83
49393;BME280;35268;42.642;23.308;2023-09-08T02:01:32;94404.50;;;19.16;61.78
49393;BME280;35268;42.642;23.308;2023-09-08T02:03:57;94414.34;;;19.09;62.43
49393;BME280;35268;42.642;23.308;2023-09-08T02:06:22;94411.13;;;19.03;63.17
49393;BME280;35268;42.642;23.308;2023-09-08T02:08:48;94407.16;;;18.97;63.41
49393;BME280;35268;42.642;23.308;2023-09-08T02:11:13;94408.66;;;18.94;63.26
49393;BME280;35268;42.642;23.308;2023-09-08T02:13:42;94409.63;;;18.86;63.69
49393;BME280;35268;42.642;23.308;2023-09-08T02:16:07;94415.31;;;18.81;63.92
49393;BME280;35268;42.642;23.308;2023-09-08T02:18:37;94415.97;;;18.78;64.67
49393;BME280;35268;42.642;23.308;2023-09-08T02:21:03;94407.72;;;18.71;64.97
49393;BME280;35268;42.642;23.308;2023-09-08T02:23:28;94404.16;;;18.67;65.07
49393;BME280;35268;42.642;23.308;2023-09-08T02:25:54;94404.50;;;18.65;65.34
49393;BME280;35268;42.642;23.308;2023-09-08T02:28:19;94402.84;;;18.60;65.38
49393;BME280;35268;42.642;23.308;2023-09-08T02:30:44;94404.31;;;18.58;65.81
49393;BME280;35268;42.642;23.308;2023-09-08T02:33:10;94395.44;;;18.57;65.72
49393;BME280;35268;42.642;23.308;2023-09-08T02:35:37;94388.50;;;18.56;65.72
49393;BME280;35268;42.642;23.308;2023-09-08T02:38:03;94389.19;;;18.53;65.88
49393;BME280;35268;42.642;23.308;2023-09-08T02:40:29;94391.44;;;18.51;66.12
49393;BME280;35268;42.642;23.308;2023-09-08T02:42:54;94385.19;;;18.47;66.23
49393;BME280;35268;42.642;23.308;2023-09-08T02:45:20;94386.34;;;18.46;66.75
49393;BME280;35268;42.642;23.308;2023-09-08T02:47:45;94381.28;;;18.44;67.04
49393;BME280;35268;42.642;23.308;2023-09-08T02:50:10;94388.16;;;18.42;67.10
49393;BME280;35268;42.642;23.308;2023-09-08T02:52:36;94392.41;;;18.43;67.23
49393;BME280;35268;42.642;23.308;2023-09-08T02:55:01;94400.78;;;18.38;67.63
49393;BME280;35268;42.642;23.308;2023-09-08T02:57:27;94396.06;;;18.35;67.79
49393;BME280;35268;42.642;23.308;2023-09-08T02:59:52;94384.84;;;18.33;67.99
49393;BME280;35268;42.642;23.308;2023-09-08T03:02:18;94393.63;;;18.30;68.22
49393;BME280;35268;42.642;23.308;2023-09-08T03:04:43;94385.38;;;18.22;69.03
49393;BME280;35268;42.642;23.308;2023-09-08T03:07:08;94393.72;;;18.17;69.32
49393;BME280;35268;42.642;23.308;2023-09-08T03:09:34;94396.25;;;18.10;70.13
49393;BME280;35268;42.642;23.308;2023-09-08T03:11:59;94399.19;;;18.05;70.82
49393;BME280;35268;42.642;23.308;2023-09-08T03:14:25;94385.97;;;18.00;70.95
49393;BME280;35268;42.642;23.308;2023-09-08T03:16:50;94393.19;;;17.96;71.10
49393;BME280;35268;42.642;23.308;2023-09-08T03:19:16;94396.13;;;17.91;71.19
49393;BME280;35268;42.642;23.308;2023-09-08T03:21:41;94398.06;;;17.90;71.25
49393;BME280;35268;42.642;23.308;2023-09-08T03:24:06;94384.03;;;17.84;71.01
49393;BME280;35268;42.642;23.308;2023-09-08T03:26:32;94392.94;;;17.85;71.45
49393;BME280;35268;42.642;23.308;2023-09-08T03:28:57;94392.38;;;17.79;71.27
49393;BME280;35268;42.642;23.308;2023-09-08T03:31:22;94397.56;;;17.72;71.79
49393;BME280;35268;42.642;23.308;2023-09-08T03:33:48;94403.28;;;17.71;72.09
49393;BME280;35268;42.642;23.308;2023-09-08T03:36:13;94409.38;;;17.68;71.93
49393;BME280;35268;42.642;23.308;2023-09-08T03:38:39;94409.63;;;17.62;72.41
49393;BME280;35268;42.642;23.308;2023-09-08T03:41:06;94409.09;;;17.57;72.53
49393;BME280;35268;42.642;23.308;2023-09-08T03:43:31;94410.91;;;17.53;72.76
49393;BME280;35268;42.642;23.308;2023-09-08T03:45:57;94416.53;;;17.48;73.19
49393;BME280;35268;42.642;23.308;2023-09-08T03:48:22;94409.59;;;17.47;73.44
49393;BME280;35268;42.642;23.308;2023-09-08T03:50:51;94408.72;;;17.42;73.49
49393;BME280;35268;42.642;23.308;2023-09-08T03:53:16;94410.53;;;17.38;73.88
49393;BME280;35268;42.642;23.308;2023-09-08T03:55:41;94396.84;;;17.31;74.22
49393;BME280;35268;42.642;23.308;2023-09-08T03:58:13;94408.31;;;17.28;74.53
49393;BME280;35268;42.642;23.308;2023-09-08T04:00:39;94401.50;;;17.18;75.26
49393;BME280;35268;42.642;23.308;2023-09-08T04:03:04;94410.34;;;17.19;75.56
49393;BME280;35268;42.642;23.308;2023-09-08T04:05:29;94407.09;;;17.13;76.17
49393;BME280;35268;42.642;23.308;2023-09-08T04:07:55;94404.78;;;17.12;76.38
49393;BME280;35268;42.642;23.308;2023-09-08T04:10:20;94411.28;;;17.11;76.72
49393;BME280;35268;42.642;23.308;2023-09-08T04:12:46;94402.06;;;17.12;77.36
49393;BME280;35268;42.642;23.308;2023-09-08T04:15:11;94413.19;;;17.10;77.87
49393;BME280;35268;42.642;23.308;2023-09-08T04:17:37;94403.97;;;17.11;78.50
49393;BME280;35268;42.642;23.308;2023-09-08T04:20:04;94403.75;;;17.16;78.67
49393;BME280;35268;42.642;23.308;2023-09-08T04:22:33;94403.03;;;17.19;78.78
49393;BME280;35268;42.642;23.308;2023-09-08T04:25:01;94408.09;;;17.21;79.03
49393;BME280;35268;42.642;23.308;2023-09-08T04:27:26;94405.06;;;17.22;78.92
49393;BME280;35268;42.642;23.308;2023-09-08T04:29:51;94414.03;;;17.27;79.01
49393;BME280;35268;42.642;23.308;2023-09-08T04:32:17;94417.94;;;17.29;78.88
49393;BME280;35268;42.642;23.308;2023-09-08T04:34:44;94414.59;;;17.32;79.17
49393;BME280;35268;42.642;23.308;2023-09-08T04:37:09;94415.38;;;17.33;78.78
49393;BME280;35268;42.642;23.308;2023-09-08T04:39:35;94416.91;;;17.34;78.80
49393;BME280;35268;42.642;23.308;2023-09-08T04:42:02;94416.78;;;17.42;78.53
49393;BME280;35268;42.642;23.308;2023-09-08T04:44:28;94422.38;;;17.50;78.32
49393;BME280;35268;42.642;23.308;2023-09-08T04:46:53;94418.31;;;17.56;78.09
49393;BME280;35268;42.642;23.308;2023-09-08T04:49:19;94423.69;;;17.56;77.96
49393;BME280;35268;42.642;23.308;2023-09-08T04:51:45;94416.59;;;17.63;77.47
49393;BME280;35268;42.642;23.308;2023-09-08T04:54:10;94426.44;;;17.72;76.69
49393;BME280;35268;42.642;23.308;2023-09-08T04:56:35;94408.88;;;17.78;76.06
49393;BME280;35268;42.642;23.308;2023-09-08T04:59:01;94414.06;;;17.83;75.13
49393;BME280;35268;42.642;23.308;2023-09-08T05:01:27;94423.09;;;17.91;73.97
49393;BME280;35268;42.642;23.308;2023-09-08T05:03:54;94420.16;;;17.96;72.66
49393;BME280;35268;42.642;23.308;2023-09-08T05:06:20;94425.06;;;18.06;71.19
49393;BME280;35268;42.642;23.308;2023-09-08T05:08:45;94413.31;;;18.14;71.08
49393;BME280;35268;42.642;23.308;2023-09-08T05:11:11;94416.16;;;18.21;71.48
49393;BME280;35268;42.642;23.308;2023-09-08T05:13:36;94421.31;;;18.27;70.22
49393;BME280;35268;42.642;23.308;2023-09-08T05:16:01;94414.28;;;18.38;69.51
49393;BME280;35268;42.642;23.308;2023-09-08T05:18:37;94421.06;;;18.48;67.89
49393;BME280;35268;42.642;23.308;2023-09-08T05:21:06;94422.44;;;18.57;66.73
49393;BME280;35268;42.642;23.308;2023-09-08T05:23:32;94424.19;;;18.65;66.06
49393;BME280;35268;42.642;23.308;2023-09-08T05:25:57;94420.50;;;18.74;66.52
49393;BME280;35268;42.642;23.308;2023-09-08T05:28:22;94422.09;;;18.75;66.34
49393;BME280;35268;42.642;23.308;2023-09-08T05:30:51;94430.44;;;18.86;66.31
49393;BME280;35268;42.642;23.308;2023-09-08T05:33:16;94424.84;;;18.94;66.14
49393;BME280;35268;42.642;23.308;2023-09-08T05:35:42;94418.03;;;19.00;66.24
49393;BME280;35268;42.642;23.308;2023-09-08T05:38:07;94416.19;;;19.04;65.83
49393;BME280;35268;42.642;23.308;2023-09-08T05:40:34;94414.44;;;19.12;64.40
49393;BME280;35268;42.642;23.308;2023-09-08T05:43:00;94427.31;;;19.19;62.90
49393;BME280;35268;42.642;23.308;2023-09-08T05:45:25;94429.75;;;19.24;62.03
49393;BME280;35268;42.642;23.308;2023-09-08T05:47:51;94425.28;;;19.32;61.07
49393;BME280;35268;42.642;23.308;2023-09-08T05:50:17;94434.28;;;19.39;59.49
49393;BME280;35268;42.642;23.308;2023-09-08T05:52:43;94434.44;;;19.47;59.92
49393;BME280;35268;42.642;23.308;2023-09-08T05:55:08;94435.31;;;19.51;58.55
49393;BME280;35268;42.642;23.308;2023-09-08T05:57:34;94439.22;;;19.53;58.06
49393;BME280;35268;42.642;23.308;2023-09-08T06:00:00;94432.72;;;19.58;58.12
49393;BME280;35268;42.642;23.308;2023-09-08T06:02:25;94446.31;;;19.61;57.93
49393;BME280;35268;42.642;23.308;2023-09-08T06:04:51;94439.50;;;19.68;57.40
49393;BME280;35268;42.642;23.308;2023-09-08T06:07:16;94435.31;;;19.70;56.94
49393;BME280;35268;42.642;23.308;2023-09-08T06:09:42;94436.97;;;19.75;56.96
49393;BME280;35268;42.642;23.308;2023-09-08T06:12:07;94434.78;;;19.80;57.10
49393;BME280;35268;42.642;23.308;2023-09-08T06:14:32;94439.94;;;19.89;56.40
49393;BME280;35268;42.642;23.308;2023-09-08T06:16:58;94441.56;;;19.94;56.56
49393;BME280;35268;42.642;23.308;2023-09-08T06:19:24;94445.97;;;20.02;56.71
49393;BME280;35268;42.642;23.308;2023-09-08T06:21:49;94444.97;;;20.10;57.00
49393;BME280;35268;42.642;23.308;2023-09-08T06:24:15;94436.59;;;20.19;57.18
49393;BME280;35268;42.642;23.308;2023-09-08T06:26:40;94448.75;;;20.29;55.75
49393;BME280;35268;42.642;23.308;2023-09-08T06:29:07;94445.41;;;20.35;55.57
49393;BME280;35268;42.642;23.308;2023-09-08T06:31:32;94449.44;;;20.45;55.70
49393;BME280;35268;42.642;23.308;2023-09-08T06:33:58;94455.03;;;20.56;55.47
49393;BME280;35268;42.642;23.308;2023-09-08T06:36:23;94456.75;;;20.64;54.30
49393;BME280;35268;42.642;23.308;2023-09-08T06:38:48;94458.44;;;20.72;54.51
49393;BME280;35268;42.642;23.308;2023-09-08T06:41:14;94460.88;;;20.81;55.00
49393;BME280;35268;42.642;23.308;2023-09-08T06:43:39;94464.09;;;20.90;53.55
49393;BME280;35268;42.642;23.308;2023-09-08T06:46:05;94457.22;;;20.96;52.50
49393;BME280;35268;42.642;23.308;2023-09-08T06:48:30;94461.22;;;21.02;53.31
49393;BME280;35268;42.642;23.308;2023-09-08T06:50:56;94463.72;;;21.15;52.13
49393;BME280;35268;42.642;23.308;2023-09-08T06:53:22;94458.50;;;21.29;51.69
49393;BME280;35268;42.642;23.308;2023-09-08T06:55:48;94468.22;;;21.34;52.15
49393;BME280;35268;42.642;23.308;2023-09-08T06:58:13;94456.41;;;21.46;51.21
49393;BME280;35268;42.642;23.308;2023-09-08T07:00:41;94465.44;;;21.57;50.63
49393;BME280;35268;42.642;23.308;2023-09-08T07:03:06;94461.72;;;21.69;50.77
49393;BME280;35268;42.642;23.308;2023-09-08T07:05:33;94463.00;;;21.78;49.91
49393;BME280;35268;42.642;23.308;2023-09-08T07:07:58;94458.88;;;21.88;50.71
49393;BME280;35268;42.642;23.308;2023-09-08T07:10:24;94458.16;;;21.95;49.09
49393;BME280;35268;42.642;23.308;2023-09-08T07:12:49;94460.19;;;22.05;48.28
49393;BME280;35268;42.642;23.308;2023-09-08T07:15:15;94455.25;;;22.14;48.52
49393;BME280;35268;42.642;23.308;2023-09-08T07:17:40;94464.31;;;22.26;48.19
49393;BME280;35268;42.642;23.308;2023-09-08T07:20:54;94461.75;;;22.40;47.45
49393;BME280;35268;42.642;23.308;2023-09-08T07:23:19;94454.00;;;22.42;47.93
49393;BME280;35268;42.642;23.308;2023-09-08T07:25:49;94456.41;;;22.51;47.75
49393;BME280;35268;42.642;23.308;2023-09-08T07:28:15;94456.84;;;22.56;47.66
49393;BME280;35268;42.642;23.308;2023-09-08T07:30:41;94450.72;;;22.67;46.99
49393;BME280;35268;42.642;23.308;2023-09-08T07:33:06;94453.50;;;22.77;46.99
49393;BME280;35268;42.642;23.308;2023-09-08T07:35:31;94452.81;;;22.88;46.30
49393;BME280;35268;42.642;23.308;2023-09-08T07:37:57;94447.41;;;22.91;45.84
49393;BME280;35268;42.642;23.308;2023-09-08T07:40:23;94444.81;;;23.02;45.76
49393;BME280;35268;42.642;23.308;2023-09-08T07:42:48;94453.44;;;23.15;46.05
49393;BME280;35268;42.642;23.308;2023-09-08T07:45:13;94453.47;;;23.22;45.23
49393;BME280;35268;42.642;23.308;2023-09-08T07:47:39;94451.94;;;23.28;44.83
49393;BME280;35268;42.642;23.308;2023-09-08T07:50:25;94453.94;;;23.38;44.41
49393;BME280;35268;42.642;23.308;2023-09-08T07:52:53;94446.97;;;23.44;44.09
49393;BME280;35268;42.642;23.308;2023-09-08T07:55:19;94456.00;;;23.56;45.39
49393;BME280;35268;42.642;23.308;2023-09-08T07:57:46;94453.31;;;23.63;44.96
49393;BME280;35268;42.642;23.308;2023-09-08T08:00:12;94458.41;;;23.72;45.59
49393;BME280;35268;42.642;23.308;2023-09-08T08:02:49;94446.00;;;23.78;44.41
49393;BME280;35268;42.642;23.308;2023-09-08T08:05:15;94441.28;;;23.75;43.87
49393;BME280;35268;42.642;23.308;2023-09-08T08:07:42;94451.00;;;23.72;43.41
49393;BME280;35268;42.642;23.308;2023-09-08T08:10:08;94457.25;;;23.76;43.89
49393;BME280;35268;42.642;23.308;2023-09-08T08:12:34;94449.91;;;23.84;44.13
49393;BME280;35268;42.642;23.308;2023-09-08T08:14:59;94444.09;;;23.93;43.31
49393;BME280;35268;42.642;23.308;2023-09-08T08:17:25;94440.63;;;24.03;43.13
49393;BME280;35268;42.642;23.308;2023-09-08T08:19:51;94446.50;;;24.16;43.15
49393;BME280;35268;42.642;23.308;2023-09-08T08:22:17;94444.97;;;24.29;43.34
49393;BME280;35268;42.642;23.308;2023-09-08T08:24:43;94436.41;;;24.38;42.53
49393;BME280;35268;42.642;23.308;2023-09-08T08:27:09;94442.28;;;24.47;42.32
49393;BME280;35268;42.642;23.308;2023-09-08T08:29:34;94444.25;;;24.50;41.41
49393;BME280;35268;42.642;23.308;2023-09-08T08:31:59;94442.31;;;24.58;41.32
49393;BME280;35268;42.642;23.308;2023-09-08T08:34:25;94440.38;;;24.62;40.86
49393;BME280;35268;42.642;23.308;2023-09-08T08:36:50;94441.53;;;24.57;40.68
49393;BME280;35268;42.642;23.308;2023-09-08T08:39:16;94443.50;;;24.53;40.31
49393;BME280;35268;42.642;23.308;2023-09-08T08:41:41;94440.72;;;24.35;40.41
49393;BME280;35268;42.642;23.308;2023-09-08T08:44:09;94431.00;;;24.34;40.41
49393;BME280;35268;42.642;23.308;2023-09-08T08:46:38;94425.16;;;24.43;40.97
49393;BME280;35268;42.642;23.308;2023-09-08T08:49:05;94430.66;;;24.61;41.59
49393;BME280;35268;42.642;23.308;2023-09-08T08:51:32;94420.50;;;24.69;40.28
49393;BME280;35268;42.642;23.308;2023-09-08T08:53:57;94423.63;;;24.71;40.02
49393;BME280;35268;42.642;23.308;2023-09-08T08:56:23;94421.69;;;24.64;38.85
49393;BME280;35268;42.642;23.308;2023-09-08T08:58:50;94420.50;;;24.69;39.13
49393;BME280;35268;42.642;23.308;2023-09-08T09:01:16;94423.63;;;24.71;40.39
49393;BME280;35268;42.642;23.308;2023-09-08T09:03:46;94420.13;;;24.74;40.78
49393;BME280;35268;42.642;23.308;2023-09-08T09:06:14;94422.06;;;24.77;39.71
49393;BME280;35268;42.642;23.308;2023-09-08T09:08:42;94418.56;;;24.83;40.73
49393;BME280;35268;42.642;23.308;2023-09-08T09:11:09;94426.72;;;24.94;41.41
49393;BME280;35268;42.642;23.308;2023-09-08T09:13:34;94424.00;;;24.98;39.35
49393;BME280;35268;42.642;23.308;2023-09-08T09:16:00;94419.72;;;25.08;39.70
49393;BME280;35268;42.642;23.308;2023-09-08T09:18:28;94420.50;;;25.12;41.02
49393;BME280;35268;42.642;23.308;2023-09-08T09:20:58;94418.91;;;25.11;38.98
49393;BME280;35268;42.642;23.308;2023-09-08T09:23:42;94418.53;;;25.16;38.66
49393;BME280;35268;42.642;23.308;2023-09-08T09:26:07;94423.59;;;25.21;39.70
49393;BME280;35268;42.642;23.308;2023-09-08T09:28:32;94404.91;;;25.16;37.67
49393;BME280;35268;42.642;23.308;2023-09-08T09:30:58;94412.69;;;25.25;38.80
49393;BME280;35268;42.642;23.308;2023-09-08T09:33:24;94421.22;;;25.37;38.90
49393;BME280;35268;42.642;23.308;2023-09-08T09:35:51;94414.19;;;25.43;37.84
49393;BME280;35268;42.642;23.308;2023-09-08T09:38:18;94420.38;;;25.58;39.69
49393;BME280;35268;42.642;23.308;2023-09-08T09:40:44;94419.97;;;25.63;38.41
49393;BME280;35268;42.642;23.308;2023-09-08T09:43:11;94406.63;;;25.80;37.36
49393;BME280;35268;42.642;23.308;2023-09-08T09:45:38;94419.50;;;25.90;37.56
49393;BME280;35268;42.642;23.308;2023-09-08T09:48:05;94417.94;;;25.86;37.85
49393;BME280;35268;42.642;23.308;2023-09-08T09:50:32;94406.25;;;25.81;37.38
49393;BME280;35268;42.642;23.308;2023-09-08T09:53:07;94398.81;;;25.82;37.33
49393;BME280;35268;42.642;23.308;2023-09-08T09:55:33;94405.00;;;25.97;39.01
49393;BME280;35268;42.642;23.308;2023-09-08T09:57:59;94406.19;;;25.96;37.40
49393;BME280;35268;42.642;23.308;2023-09-08T10:00:27;94403.03;;;26.01;37.50
49393;BME280;35268;42.642;23.308;2023-09-08T10:02:56;94393.69;;;26.02;37.29
49393;BME280;35268;42.642;23.308;2023-09-08T10:05:23;94394.84;;;26.01;37.75
49393;BME280;35268;42.642;23.308;2023-09-08T10:07:49;94394.06;;;26.08;37.51
49393;BME280;35268;42.642;23.308;2023-09-08T10:10:16;94388.13;;;26.16;37.32
49393;BME280;35268;42.642;23.308;2023-09-08T10:12:48;94386.53;;;26.22;37.26
49393;BME280;35268;42.642;23.308;2023-09-08T10:15:19;94388.16;;;26.13;37.21
49393;BME280;35268;42.642;23.308;2023-09-08T10:17:45;94389.28;;;26.15;36.51
49393;BME280;35268;42.642;23.308;2023-09-08T10:20:13;94373.25;;;26.21;36.67
49393;BME280;35268;42.642;23.308;2023-09-08T10:22:42;94381.84;;;26.23;36.59
49393;BME280;35268;42.642;23.308;2023-09-08T10:25:08;94393.50;;;26.31;37.60
49393;BME280;35268;42.642;23.308;2023-09-08T10:27:34;94373.88;;;26.43;37.30
49393;BME280;35268;42.642;23.308;2023-09-08T10:30:02;94369.16;;;26.51;36.83
49393;BME280;35268;42.642;23.308;2023-09-08T10:32:31;94375.38;;;26.55;35.75
49393;BME280;35268;42.642;23.308;2023-09-08T10:34:57;94370.28;;;26.57;37.00
49393;BME280;35268;42.642;23.308;2023-09-08T10:37:26;94367.53;;;26.60;36.59
49393;BME280;35268;42.642;23.308;2023-09-08T10:39:55;94367.84;;;26.70;36.98
49393;BME280;35268;42.642;23.308;2023-09-08T10:42:22;94365.06;;;26.77;35.91
49393;BME280;35268;42.642;23.308;2023-09-08T10:47:19;94378.34;;;26.75;36.99
49393;BME280;35268;42.642;23.308;2023-09-08T10:49:47;94372.16;;;26.67;36.02
49393;BME280;35268;42.642;23.308;2023-09-08T10:52:12;94369.06;;;26.65;35.91
49393;BME280;35268;42.642;23.308;2023-09-08T10:54:42;94369.47;;;26.64;35.89
49393;BME280;35268;42.642;23.308;2023-09-08T10:57:21;94379.31;;;26.50;35.96
49393;BME280;35268;42.642;23.308;2023-09-08T10:59:55;94373.88;;;26.43;36.55
49393;BME280;35268;42.642;23.308;2023-09-08T11:05:08;94359.09;;;26.40;36.23
49393;BME280;35268;42.642;23.308;2023-09-08T11:07:36;94366.13;;;26.38;36.57
49393;BME280;35268;42.642;23.308;2023-09-08T11:10:05;94367.31;;;26.37;37.06
49393;BME280;35268;42.642;23.308;2023-09-08T11:12:31;94365.78;;;26.32;36.48
49393;BME280;35268;42.642;23.308;2023-09-08T11:15:01;94359.56;;;26.28;37.17
49393;BME280;35268;42.642;23.308;2023-09-08T11:17:36;94363.66;;;25.98;37.13
49393;BME280;35268;42.642;23.308;2023-09-08T11:20:05;94361.75;;;25.85;37.07
49393;BME280;35268;42.642;23.308;2023-09-08T11:22:36;94353.22;;;25.79;37.44
49393;BME280;35268;42.642;23.308;2023-09-08T11:25:02;94358.03;;;25.50;38.29
49393;BME280;35268;42.642;23.308;2023-09-08T11:27:30;94357.59;;;25.62;37.99
49393;BME280;35268;42.642;23.308;2023-09-08T11:29:56;94359.16;;;25.63;38.07
49393;BME280;35268;42.642;23.308;2023-09-08T11:32:23;94350.19;;;25.62;38.04
49393;BME280;35268;42.642;23.308;2023-09-08T11:34:48;94354.47;;;25.63;38.14
49393;BME280;35268;42.642;23.308;2023-09-08T11:37:15;94352.13;;;25.62;38.67
49393;BME280;35268;42.642;23.308;2023-09-08T11:39:44;94356.41;;;25.67;38.89
49393;BME280;35268;42.642;23.308;2023-09-08T11:42:11;94348.56;;;25.72;38.76
49393;BME280;35268;42.642;23.308;2023-09-08T11:44:37;94348.09;;;25.95;38.33
49393;BME280;35268;42.642;23.308;2023-09-08T11:47:03;94338.22;;;26.09;38.31
49393;BME280;35268;42.642;23.308;2023-09-08T11:49:42;94345.91;;;26.28;37.17
49393;BME280;35268;42.642;23.308;2023-09-08T11:52:09;94335.69;;;26.36;37.60
49393;BME280;35268;42.642;23.308;2023-09-08T11:54:35;94337.31;;;26.30;37.30
49393;BME280;35268;42.642;23.308;2023-09-08T11:57:03;94330.25;;;26.36;39.12
49393;BME280;35268;42.642;23.308;2023-09-08T11:59:32;94333.34;;;26.38;37.97
49393;BME280;35268;42.642;23.308;2023-09-08T12:01:58;94340.19;;;26.57;37.40
49393;BME280;35268;42.642;23.308;2023-09-08T12:04:24;94338.91;;;26.72;37.41
49393;BME280;35268;42.642;23.308;2023-09-08T12:06:52;94330.69;;;26.76;37.84
49393;BME280;35268;42.642;23.308;2023-09-08T12:09:18;94341.47;;;26.90;38.61
49393;BME280;35268;42.642;23.308;2023-09-08T12:11:45;94332.31;;;27.08;38.30
49393;BME280;35268;42.642;23.308;2023-09-08T12:14:13;94325.84;;;27.29;37.72
49393;BME280;35268;42.642;23.308;2023-09-08T12:16:39;94331.28;;;27.32;35.31
49393;BME280;35268;42.642;23.308;2023-09-08T12:19:05;94333.50;;;27.41;36.01
49393;BME280;35268;42.642;23.308;2023-09-08T12:21:31;94326.91;;;27.38;35.24
49393;BME280;35268;42.642;23.308;2023-09-08T12:23:58;94313.47;;;27.48;36.06
49393;BME280;35268;42.642;23.308;2023-09-08T12:26:26;94321.06;;;27.67;36.52
49393;BME280;35268;42.642;23.308;2023-09-08T12:28:52;94322.34;;;27.90;35.35
49393;BME280;35268;42.642;23.308;2023-09-08T12:31:18;94313.56;;;28.02;35.22
49393;BME280;35268;42.642;23.308;2023-09-08T12:33:44;94306.31;;;28.15;34.57
49393;BME280;35268;42.642;23.308;2023-09-08T12:38:36;94308.41;;;28.31;33.57
49393;BME280;35268;42.642;23.308;2023-09-08T12:41:02;94301.63;;;28.39;34.38
49393;BME280;35268;42.642;23.308;2023-09-08T12:43:27;94291.66;;;28.49;33.69
49393;BME280;35268;42.642;23.308;2023-09-08T12:45:53;94296.22;;;28.59;32.78
49393;BME280;35268;42.642;23.308;2023-09-08T12:48:18;94296.31;;;28.76;33.22
49393;BME280;35268;42.642;23.308;2023-09-08T12:50:43;94294.63;;;28.82;32.73
49393;BME280;35268;42.642;23.308;2023-09-08T12:53:09;94291.06;;;28.85;32.75
49393;BME280;35268;42.642;23.308;2023-09-08T12:55:34;94298.88;;;28.87;31.09
49393;BME280;35268;42.642;23.308;2023-09-08T12:57:59;94298.47;;;28.88;32.59
49393;BME280;35268;42.642;23.308;2023-09-08T13:00:25;94292.81;;;28.95;31.27